createdAt,value
2023-11-15T00:00:45.015Z,2.71
2023-11-15T00:01:44.046Z,2.40
2023-11-15T00:02:41.987Z,2.15
2023-11-15T00:03:39.595Z,2.17
2023-11-15T00:04:37.862Z,2.24
2023-11-15T00:05:35.368Z,2.11
2023-11-15T00:06:32.969Z,2.16
2023-11-15T00:07:31.322Z,2.32
2023-11-15T00:08:28.735Z,2.31
2023-11-15T00:09:26.193Z,2.34
2023-11-15T00:10:24.255Z,2.46
2023-11-15T00:11:22.155Z,2.13
2023-11-15T00:12:19.598Z,2.19
2023-11-15T00:13:17.009Z,2.06
2023-11-15T00:14:14.423Z,2.13
2023-11-15T00:15:11.940Z,2.19
2023-11-15T00:16:09.433Z,2.31
2023-11-15T00:17:06.851Z,2.16
2023-11-15T00:18:05.994Z,2.00
2023-11-15T00:19:04.791Z,2.04
2023-11-15T00:20:05.104Z,2.28
2023-11-15T00:21:02.630Z,2.08
2023-11-15T00:22:00.163Z,2.21
2023-11-15T00:22:57.563Z,2.24
2023-11-15T00:23:55.030Z,2.14
2023-11-15T00:24:52.886Z,2.27
2023-11-15T00:25:50.543Z,2.23
2023-11-15T00:26:47.956Z,2.33
2023-11-15T00:27:45.456Z,2.11
2023-11-15T00:28:42.933Z,1.93
2023-11-15T00:29:40.479Z,2.32
2023-11-15T00:30:37.937Z,2.34
2023-11-15T00:31:35.281Z,2.58
2023-11-15T00:32:32.742Z,2.16
2023-11-15T00:33:30.355Z,2.28
2023-11-15T00:34:27.767Z,2.20
2023-11-15T00:35:26.734Z,2.52
2023-11-15T00:36:24.470Z,2.33
2023-11-15T00:37:22.253Z,2.31
2023-11-15T00:38:20.014Z,2.54
2023-11-15T00:39:17.444Z,2.50
2023-11-15T00:40:17.529Z,2.43
2023-11-15T00:41:14.881Z,2.14
2023-11-15T00:42:12.420Z,2.21
2023-11-15T00:43:09.804Z,2.22
2023-11-15T00:44:08.781Z,2.36
2023-11-15T00:45:06.411Z,2.44
2023-11-15T00:46:03.996Z,2.29
2023-11-15T00:47:01.513Z,2.23
2023-11-15T00:47:59.020Z,2.43
2023-11-15T00:48:56.802Z,2.40
2023-11-15T00:49:54.152Z,2.44
2023-11-15T00:50:52.628Z,2.20
2023-11-15T00:51:50.036Z,2.18
2023-11-15T00:52:47.556Z,2.46
2023-11-15T00:53:44.947Z,2.37
2023-11-15T00:54:42.720Z,2.24
2023-11-15T00:55:40.258Z,2.30
2023-11-15T00:56:37.634Z,2.63
2023-11-15T00:57:35.879Z,2.78
2023-11-15T00:58:39.950Z,2.69
2023-11-15T00:59:45.666Z,2.86
2023-11-15T01:00:49.019Z,2.73
2023-11-15T01:01:46.479Z,2.89
2023-11-15T01:02:47.744Z,2.81
2023-11-15T01:03:57.454Z,2.95
2023-11-15T01:04:55.094Z,2.83
2023-11-15T01:05:56.516Z,2.96
2023-11-15T01:06:54.179Z,3.16
2023-11-15T01:07:51.651Z,3.07
2023-11-15T01:08:49.032Z,3.12
2023-11-15T01:09:46.505Z,2.89
2023-11-15T01:10:44.232Z,2.89
2023-11-15T01:11:42.505Z,2.71
2023-11-15T01:12:40.483Z,2.53
2023-11-15T01:13:37.952Z,2.68
2023-11-15T01:14:35.801Z,2.73
2023-11-15T01:15:33.191Z,2.86
2023-11-15T01:16:31.246Z,2.44
2023-11-15T01:17:31.339Z,2.69
2023-11-15T01:18:30.698Z,2.68
2023-11-15T01:19:28.070Z,2.88
2023-11-15T01:20:26.371Z,2.83
2023-11-15T01:21:23.872Z,2.90
2023-11-15T01:22:21.292Z,2.36
2023-11-15T01:23:18.780Z,2.90
2023-11-15T01:24:17.752Z,2.68
2023-11-15T01:25:15.475Z,2.56
2023-11-15T01:26:12.922Z,2.37
2023-11-15T01:27:10.252Z,2.46
2023-11-15T01:28:08.304Z,2.49
2023-11-15T01:29:05.743Z,2.36
2023-11-15T01:30:04.808Z,2.25
2023-11-15T01:31:03.559Z,2.17
2023-11-15T01:32:00.918Z,2.05
2023-11-15T01:32:59.079Z,2.55
2023-11-15T01:33:56.603Z,2.54
2023-11-15T01:34:54.083Z,2.52
2023-11-15T01:35:51.736Z,2.28
2023-11-15T01:36:49.232Z,2.30
2023-11-15T01:37:48.865Z,2.22
2023-11-15T01:38:47.116Z,2.28
2023-11-15T01:39:44.591Z,2.22
2023-11-15T01:40:42.189Z,2.37
2023-11-15T01:41:41.031Z,2.10
2023-11-15T01:42:41.722Z,2.41
2023-11-15T01:43:39.791Z,2.25
2023-11-15T01:44:37.163Z,2.51
2023-11-15T01:45:34.634Z,2.48
2023-11-15T01:46:32.246Z,2.49
2023-11-15T01:47:30.523Z,2.24
2023-11-15T01:48:28.728Z,2.40
2023-11-15T01:49:26.355Z,2.32
2023-11-15T01:50:24.596Z,2.39
2023-11-15T01:51:22.368Z,2.09
2023-11-15T01:52:19.806Z,2.28
2023-11-15T01:53:17.338Z,2.17
2023-11-15T01:54:16.983Z,2.39
2023-11-15T01:55:17.612Z,2.19
2023-11-15T01:56:14.979Z,2.42
2023-11-15T01:57:13.340Z,2.01
2023-11-15T01:58:10.934Z,2.42
2023-11-15T01:59:09.916Z,2.13
2023-11-15T02:00:12.022Z,2.22
2023-11-15T02:01:11.969Z,2.38
2023-11-15T02:02:09.353Z,2.35
2023-11-15T02:03:06.812Z,2.14
2023-11-15T02:04:05.451Z,2.29
2023-11-15T02:05:02.811Z,2.22
2023-11-15T02:06:00.424Z,2.25
2023-11-15T02:06:57.970Z,2.26
2023-11-15T02:07:55.579Z,2.24
2023-11-15T02:08:53.040Z,2.52
2023-11-15T02:09:50.651Z,2.19
2023-11-15T02:10:48.295Z,2.20
2023-11-15T02:11:45.732Z,1.85
2023-11-15T02:12:43.346Z,2.16
2023-11-15T02:13:40.806Z,2.41
2023-11-15T02:14:38.944Z,2.14
2023-11-15T02:15:36.367Z,2.23
2023-11-15T02:16:33.895Z,2.42
2023-11-15T02:17:31.489Z,2.25
2023-11-15T02:18:30.468Z,2.38
2023-11-15T02:19:30.292Z,2.49
2023-11-15T02:20:29.326Z,2.38
2023-11-15T02:21:26.775Z,2.21
2023-11-15T02:22:27.122Z,2.26
2023-11-15T02:23:25.122Z,2.30
2023-11-15T02:24:22.705Z,2.27
2023-11-15T02:25:20.723Z,2.31
2023-11-15T02:26:18.110Z,2.38
2023-11-15T02:27:15.508Z,2.35
2023-11-15T02:28:12.869Z,2.20
2023-11-15T02:29:12.147Z,1.99
2023-11-15T02:30:10.077Z,2.46
2023-11-15T02:31:10.223Z,2.47
2023-11-15T02:32:08.239Z,2.23
2023-11-15T02:33:05.651Z,2.14
2023-11-15T02:34:03.224Z,2.20
2023-11-15T02:35:00.642Z,2.37
2023-11-15T02:35:58.045Z,2.22
2023-11-15T02:36:56.765Z,2.37
2023-11-15T02:37:54.189Z,2.01
2023-11-15T02:38:51.750Z,1.84
2023-11-15T02:39:49.269Z,1.88
2023-11-15T02:40:47.059Z,1.87
2023-11-15T02:41:44.476Z,2.08
2023-11-15T02:42:41.823Z,2.20
2023-11-15T02:43:39.421Z,2.12
2023-11-15T02:44:36.989Z,2.07
2023-11-15T02:45:34.428Z,1.99
2023-11-15T02:46:31.830Z,2.42
2023-11-15T02:47:29.385Z,1.93
2023-11-15T02:48:27.779Z,1.91
2023-11-15T02:49:25.252Z,2.02
2023-11-15T02:50:22.690Z,1.89
2023-11-15T02:51:20.058Z,2.24
2023-11-15T02:52:17.437Z,1.97
2023-11-15T02:53:14.964Z,1.91
2023-11-15T02:54:12.290Z,1.94
2023-11-15T02:55:09.800Z,2.07
2023-11-15T02:56:08.115Z,1.93
2023-11-15T02:57:05.645Z,1.72
2023-11-15T02:58:04.764Z,1.92
2023-11-15T02:59:02.287Z,1.88
2023-11-15T02:59:59.792Z,1.95
2023-11-15T03:00:57.367Z,1.99
2023-11-15T03:01:54.774Z,1.85
2023-11-15T03:02:52.287Z,1.97
2023-11-15T03:03:49.871Z,1.95
2023-11-15T03:04:47.300Z,2.10
2023-11-15T03:05:44.774Z,1.97
2023-11-15T03:06:42.118Z,1.80
2023-11-15T03:07:39.933Z,2.06
2023-11-15T03:08:37.764Z,1.77
2023-11-15T03:09:35.142Z,1.66
2023-11-15T03:10:33.736Z,1.93
2023-11-15T03:11:31.132Z,2.11
2023-11-15T03:12:28.925Z,1.71
2023-11-15T03:13:26.869Z,1.86
2023-11-15T03:14:24.289Z,1.93
2023-11-15T03:15:21.751Z,1.93
2023-11-15T03:16:19.162Z,1.92
2023-11-15T03:17:17.772Z,2.19
2023-11-15T03:18:15.704Z,2.02
2023-11-15T03:19:13.132Z,1.98
2023-11-15T03:20:10.723Z,2.01
2023-11-15T03:21:08.888Z,1.89
2023-11-15T03:22:06.502Z,1.93
2023-11-15T03:23:04.055Z,2.22
2023-11-15T03:24:01.465Z,1.97
2023-11-15T03:24:58.895Z,1.89
2023-11-15T03:25:56.274Z,1.94
2023-11-15T03:26:54.009Z,2.03
2023-11-15T03:27:52.454Z,1.80
2023-11-15T03:28:49.952Z,1.92
2023-11-15T03:29:47.658Z,1.90
2023-11-15T03:30:45.020Z,1.71
2023-11-15T03:31:42.417Z,1.71
2023-11-15T03:32:40.056Z,1.84
2023-11-15T03:33:37.622Z,1.88
2023-11-15T03:34:36.668Z,1.83
2023-11-15T03:35:34.129Z,1.86
2023-11-15T03:36:33.909Z,1.65
2023-11-15T03:37:32.316Z,1.74
2023-11-15T03:38:29.730Z,1.82
2023-11-15T03:39:28.033Z,1.59
2023-11-15T03:40:25.422Z,1.73
2023-11-15T03:41:23.014Z,1.76
2023-11-15T03:42:20.370Z,1.92
2023-11-15T03:43:17.804Z,1.88
2023-11-15T03:44:16.749Z,1.71
2023-11-15T03:45:14.357Z,2.00
2023-11-15T03:46:11.846Z,1.85
2023-11-15T03:47:09.844Z,1.66
2023-11-15T03:48:08.516Z,1.82
2023-11-15T03:49:06.656Z,1.75
2023-11-15T03:50:06.023Z,1.62
2023-11-15T03:51:03.552Z,1.79
2023-11-15T03:52:00.951Z,1.83
2023-11-15T03:52:58.284Z,1.66
2023-11-15T03:53:55.664Z,2.00
2023-11-15T03:54:53.182Z,1.91
2023-11-15T03:55:50.619Z,1.76
2023-11-15T03:56:48.090Z,1.81
2023-11-15T03:57:47.558Z,1.83
2023-11-15T03:58:45.309Z,1.64
2023-11-15T03:59:48.198Z,1.89
2023-11-15T04:00:45.727Z,1.78
2023-11-15T04:01:52.007Z,1.65
2023-11-15T04:02:54.182Z,1.84
2023-11-15T04:03:51.904Z,1.79
2023-11-15T04:04:49.443Z,1.63
2023-11-15T04:05:48.080Z,1.56
2023-11-15T04:06:45.510Z,1.80
2023-11-15T04:07:43.321Z,1.76
2023-11-15T04:08:42.393Z,1.56
2023-11-15T04:09:40.188Z,1.86
2023-11-15T04:10:38.269Z,1.86
2023-11-15T04:11:36.216Z,2.02
2023-11-15T04:12:33.783Z,2.00
2023-11-15T04:13:31.187Z,1.66
2023-11-15T04:14:28.810Z,1.81
2023-11-15T04:15:26.275Z,1.92
2023-11-15T04:16:23.664Z,1.85
2023-11-15T04:17:21.004Z,1.54
2023-11-15T04:18:18.581Z,1.66
2023-11-15T04:19:16.463Z,1.73
2023-11-15T04:20:13.980Z,2.03
2023-11-15T04:21:11.360Z,1.99
2023-11-15T04:22:13.813Z,1.77
2023-11-15T04:23:11.843Z,1.84
2023-11-15T04:24:09.449Z,1.87
2023-11-15T04:25:07.108Z,1.67
2023-11-15T04:26:04.589Z,1.80
2023-11-15T04:27:01.937Z,1.73
2023-11-15T04:28:01.494Z,1.64
2023-11-15T04:28:59.420Z,1.66
2023-11-15T04:29:58.962Z,1.83
2023-11-15T04:30:56.386Z,1.91
2023-11-15T04:31:54.385Z,1.63
2023-11-15T04:32:51.826Z,1.76
2023-11-15T04:33:50.166Z,1.71
2023-11-15T04:34:47.645Z,2.02
2023-11-15T04:35:45.062Z,1.79
2023-11-15T04:36:42.992Z,1.73
2023-11-15T04:37:40.442Z,1.91
2023-11-15T04:38:38.284Z,2.04
2023-11-15T04:39:35.696Z,1.78
2023-11-15T04:40:33.126Z,1.82
2023-11-15T04:41:30.500Z,1.80
2023-11-15T04:42:28.019Z,2.09
2023-11-15T04:43:25.440Z,1.70
2023-11-15T04:44:22.969Z,1.79
2023-11-15T04:45:20.350Z,1.82
2023-11-15T04:46:18.079Z,1.94
2023-11-15T04:47:15.585Z,1.70
2023-11-15T04:48:12.964Z,1.83
2023-11-15T04:49:10.445Z,2.06
2023-11-15T04:50:09.547Z,1.78
2023-11-15T04:51:07.081Z,1.79
2023-11-15T04:52:04.652Z,2.07
2023-11-15T04:53:01.996Z,2.02
2023-11-15T04:53:59.470Z,1.81
2023-11-15T04:54:56.945Z,1.83
2023-11-15T04:55:54.389Z,1.82
2023-11-15T04:56:51.957Z,1.75
2023-11-15T04:57:49.362Z,1.96
2023-11-15T04:58:46.750Z,1.87
2023-11-15T04:59:44.212Z,1.93
2023-11-15T05:00:41.614Z,1.94
2023-11-15T05:01:42.799Z,1.65
2023-11-15T05:02:40.455Z,1.68
2023-11-15T05:03:38.075Z,1.79
2023-11-15T05:04:35.732Z,1.95
2023-11-15T05:05:33.284Z,1.71
2023-11-15T05:06:30.890Z,1.72
2023-11-15T05:07:28.483Z,1.78
2023-11-15T05:08:25.923Z,1.69
2023-11-15T05:09:24.408Z,1.83
2023-11-15T05:10:23.392Z,1.73
2023-11-15T05:11:20.765Z,1.75
2023-11-15T05:12:18.262Z,2.57
2023-11-15T05:13:15.628Z,1.96
2023-11-15T05:14:14.238Z,2.11
2023-11-15T05:15:11.624Z,2.02
2023-11-15T05:16:09.388Z,6.10
2023-11-15T05:17:06.823Z,3.61
2023-11-15T05:18:07.372Z,2.06
2023-11-15T05:19:05.093Z,1.82
2023-11-15T05:20:02.490Z,2.51
2023-11-15T05:20:59.947Z,1.83
2023-11-15T05:21:57.385Z,1.52
2023-11-15T05:22:57.468Z,1.60
2023-11-15T05:23:58.261Z,1.92
2023-11-15T05:24:56.966Z,3.26
2023-11-15T05:25:54.398Z,4.27
2023-11-15T05:26:51.844Z,7.56
2023-11-15T05:27:49.347Z,5.55
2023-11-15T05:28:46.836Z,4.09
2023-11-15T05:29:44.257Z,4.31
2023-11-15T05:30:42.436Z,7.31
2023-11-15T05:31:39.802Z,2.31
2023-11-15T05:32:37.446Z,2.14
2023-11-15T05:33:35.052Z,2.16
2023-11-15T05:34:32.504Z,1.99
2023-11-15T05:35:29.927Z,1.84
2023-11-15T05:36:27.285Z,3.61
2023-11-15T05:37:24.669Z,3.11
2023-11-15T05:38:22.119Z,2.70
2023-11-15T05:39:19.502Z,3.85
2023-11-15T05:40:19.300Z,4.15
2023-11-15T05:41:16.672Z,2.90
2023-11-15T05:42:14.049Z,2.56
2023-11-15T05:43:11.426Z,2.80
2023-11-15T05:44:08.750Z,3.03
2023-11-15T05:45:06.678Z,3.04
2023-11-15T05:46:04.396Z,3.62
2023-11-15T05:47:02.027Z,2.23
2023-11-15T05:47:59.619Z,4.17
2023-11-15T05:48:59.821Z,9.30
2023-11-15T05:49:57.234Z,3.34
2023-11-15T05:50:55.266Z,3.85
2023-11-15T05:51:53.293Z,6.05
2023-11-15T05:52:53.637Z,4.18
2023-11-15T05:53:51.028Z,3.96
2023-11-15T05:54:48.701Z,4.93
2023-11-15T05:55:46.089Z,5.02
2023-11-15T05:56:49.889Z,5.85
2023-11-15T05:57:47.968Z,4.50
2023-11-15T05:58:47.139Z,5.25
2023-11-15T05:59:44.677Z,3.36
2023-11-15T06:00:42.037Z,2.91
2023-11-15T06:01:39.654Z,2.43
2023-11-15T06:02:37.160Z,3.51
2023-11-15T06:03:34.700Z,2.64
2023-11-15T06:04:33.084Z,1.81
2023-11-15T06:05:30.811Z,1.95
2023-11-15T06:06:28.930Z,2.44
2023-11-15T06:07:27.170Z,3.95
2023-11-15T06:08:25.430Z,2.34
2023-11-15T06:09:22.958Z,1.73
2023-11-15T06:10:20.355Z,5.44
2023-11-15T06:11:17.800Z,4.01
2023-11-15T06:12:15.233Z,1.99
2023-11-15T06:13:15.829Z,1.82
2023-11-15T06:14:15.890Z,1.94
2023-11-15T06:15:14.155Z,2.00
2023-11-15T06:16:11.549Z,1.79
2023-11-15T06:17:09.046Z,1.77
2023-11-15T06:18:07.943Z,1.67
2023-11-15T06:19:08.466Z,1.68
2023-11-15T06:20:07.564Z,1.68
2023-11-15T06:21:05.420Z,2.03
2023-11-15T06:22:02.911Z,2.56
2023-11-15T06:23:00.253Z,2.03
2023-11-15T06:23:58.025Z,2.60
2023-11-15T06:24:55.628Z,2.81
2023-11-15T06:25:52.973Z,1.97
2023-11-15T06:26:53.096Z,1.73
2023-11-15T06:27:50.645Z,2.04
2023-11-15T06:28:50.353Z,1.60
2023-11-15T06:29:48.573Z,1.96
2023-11-15T06:30:50.188Z,2.36
2023-11-15T06:31:49.232Z,2.00
2023-11-15T06:32:46.680Z,1.78
2023-11-15T06:33:44.329Z,2.12
2023-11-15T06:34:41.862Z,2.91
2023-11-15T06:35:39.262Z,2.30
2023-11-15T06:36:37.646Z,2.01
2023-11-15T06:37:35.809Z,2.06
2023-11-15T06:38:35.833Z,3.76
2023-11-15T06:39:33.336Z,2.91
2023-11-15T06:40:30.712Z,2.72
2023-11-15T06:41:28.173Z,2.94
2023-11-15T06:42:25.532Z,2.76
2023-11-15T06:43:23.826Z,2.62
2023-11-15T06:44:21.258Z,2.85
2023-11-15T06:45:18.847Z,2.84
2023-11-15T06:46:19.818Z,2.26
2023-11-15T06:47:17.261Z,2.64
2023-11-15T06:48:14.670Z,2.06
2023-11-15T06:49:12.361Z,2.45
2023-11-15T06:50:09.980Z,2.66
2023-11-15T06:51:07.467Z,2.14
2023-11-15T06:52:07.113Z,2.17
2023-11-15T06:53:04.572Z,2.27
2023-11-15T06:54:02.304Z,2.81
2023-11-15T06:55:00.046Z,3.17
2023-11-15T06:56:00.026Z,2.36
2023-11-15T06:56:57.612Z,3.18
2023-11-15T06:57:55.055Z,3.26
2023-11-15T06:58:52.960Z,3.09
2023-11-15T06:59:50.460Z,3.02
2023-11-15T07:00:49.121Z,2.45
2023-11-15T07:01:49.429Z,2.17
2023-11-15T07:02:47.091Z,2.36
2023-11-15T07:03:45.022Z,2.74
2023-11-15T07:04:43.384Z,2.31
2023-11-15T07:05:44.175Z,2.88
2023-11-15T07:06:48.345Z,2.36
2023-11-15T07:07:45.723Z,2.18
2023-11-15T07:08:43.258Z,2.04
2023-11-15T07:09:40.701Z,2.16
2023-11-15T07:10:38.969Z,6.28
2023-11-15T07:11:37.115Z,3.82
2023-11-15T07:12:37.393Z,2.32
2023-11-15T07:13:37.475Z,2.24
2023-11-15T07:14:35.713Z,2.09
2023-11-15T07:15:33.174Z,2.24
2023-11-15T07:16:30.961Z,3.21
2023-11-15T07:17:29.466Z,2.21
2023-11-15T07:18:29.026Z,2.29
2023-11-15T07:19:26.755Z,2.64
2023-11-15T07:20:24.182Z,2.13
2023-11-15T07:21:21.691Z,2.23
2023-11-15T07:22:19.101Z,2.18
2023-11-15T07:23:16.584Z,2.37
2023-11-15T07:24:14.371Z,2.42
2023-11-15T07:25:14.025Z,1.90
2023-11-15T07:26:12.286Z,2.34
2023-11-15T07:27:09.860Z,2.18
2023-11-15T07:28:09.456Z,1.96
2023-11-15T07:29:11.219Z,1.97
2023-11-15T07:30:09.405Z,3.65
2023-11-15T07:31:07.396Z,4.01
2023-11-15T07:32:05.784Z,2.37
2023-11-15T07:33:04.905Z,2.19
2023-11-15T07:34:03.069Z,1.96
2023-11-15T07:35:00.573Z,2.15
2023-11-15T07:35:58.044Z,2.25
2023-11-15T07:36:57.079Z,2.27
2023-11-15T07:37:54.729Z,1.90
2023-11-15T07:38:52.214Z,1.96
2023-11-15T07:39:49.731Z,1.91
2023-11-15T07:40:48.805Z,2.18
2023-11-15T07:41:46.245Z,1.94
2023-11-15T07:42:43.681Z,1.80
2023-11-15T07:43:42.507Z,1.69
2023-11-15T07:44:40.026Z,1.81
2023-11-15T07:45:37.901Z,2.69
2023-11-15T07:46:38.781Z,2.23
2023-11-15T07:47:37.020Z,2.01
2023-11-15T07:48:35.779Z,3.30
2023-11-15T07:49:33.235Z,2.33
2023-11-15T07:50:30.634Z,2.22
2023-11-15T07:51:29.360Z,2.17
2023-11-15T07:52:27.524Z,2.07
2023-11-15T07:53:25.970Z,1.70
2023-11-15T07:54:24.539Z,1.83
2023-11-15T07:55:23.365Z,2.20
2023-11-15T07:56:21.583Z,2.71
2023-11-15T07:57:21.238Z,2.68
2023-11-15T07:58:18.723Z,3.57
2023-11-15T07:59:16.310Z,3.29
2023-11-15T08:00:14.117Z,3.47
2023-11-15T08:01:11.622Z,3.76
2023-11-15T08:02:09.035Z,2.81
2023-11-15T08:03:09.418Z,4.51
2023-11-15T08:04:07.680Z,4.47
2023-11-15T08:05:11.482Z,2.69
2023-11-15T08:06:12.092Z,2.10
2023-11-15T08:07:09.571Z,2.55
2023-11-15T08:08:07.977Z,2.13
2023-11-15T08:09:07.367Z,2.18
2023-11-15T08:10:06.276Z,4.66
2023-11-15T08:11:05.159Z,3.45
2023-11-15T08:12:02.712Z,1.95
2023-11-15T08:13:00.150Z,1.96
2023-11-15T08:13:58.113Z,2.20
2023-11-15T08:14:55.610Z,1.80
2023-11-15T08:15:53.221Z,1.99
2023-11-15T08:16:50.978Z,2.27
2023-11-15T08:17:49.412Z,2.43
2023-11-15T08:18:47.804Z,2.84
2023-11-15T08:19:48.782Z,2.17
2023-11-15T08:20:48.185Z,2.16
2023-11-15T08:21:45.658Z,3.01
2023-11-15T08:22:43.269Z,2.14
2023-11-15T08:23:42.040Z,1.79
2023-11-15T08:24:40.534Z,2.58
2023-11-15T08:25:38.397Z,2.62
2023-11-15T08:26:36.004Z,2.45
2023-11-15T08:27:33.746Z,2.48
2023-11-15T08:28:31.933Z,2.34
2023-11-15T08:29:30.025Z,2.98
2023-11-15T08:30:27.438Z,2.35
2023-11-15T08:31:24.961Z,2.55
2023-11-15T08:32:22.435Z,2.31
2023-11-15T08:33:20.015Z,2.77
2023-11-15T08:34:22.168Z,2.49
2023-11-15T08:35:21.728Z,2.24
2023-11-15T08:36:19.093Z,2.08
2023-11-15T08:37:16.465Z,3.47
2023-11-15T08:38:14.082Z,2.95
2023-11-15T08:39:14.177Z,3.09
2023-11-15T08:40:23.218Z,2.90
2023-11-15T08:41:26.105Z,2.75
2023-11-15T08:42:23.613Z,2.55
2023-11-15T08:43:20.964Z,2.37
2023-11-15T08:44:19.056Z,3.50
2023-11-15T08:45:17.280Z,3.00
2023-11-15T08:46:16.077Z,2.57
2023-11-15T08:47:14.633Z,2.69
2023-11-15T08:48:13.401Z,2.53
2023-11-15T08:49:13.726Z,2.83
2023-11-15T08:50:11.604Z,2.40
2023-11-15T08:51:09.108Z,2.74
2023-11-15T08:52:07.964Z,3.09
2023-11-15T08:53:07.968Z,2.04
2023-11-15T08:54:05.535Z,4.64
2023-11-15T08:55:03.172Z,2.61
2023-11-15T08:56:00.564Z,2.38
2023-11-15T08:56:58.128Z,2.64
2023-11-15T08:57:57.462Z,2.32
2023-11-15T08:58:55.456Z,2.72
2023-11-15T08:59:52.875Z,3.12
2023-11-15T09:00:51.412Z,2.79
2023-11-15T09:01:48.942Z,2.92
2023-11-15T09:02:48.432Z,2.93
2023-11-15T09:03:46.135Z,3.54
2023-11-15T09:04:43.748Z,3.15
2023-11-15T09:05:45.254Z,3.32
2023-11-15T09:06:44.269Z,3.21
2023-11-15T09:07:42.953Z,3.04
2023-11-15T09:08:40.442Z,3.29
2023-11-15T09:09:41.360Z,2.91
2023-11-15T09:10:38.907Z,3.18
2023-11-15T09:11:36.324Z,3.00
2023-11-15T09:12:35.174Z,2.86
2023-11-15T09:13:34.358Z,2.88
2023-11-15T09:14:31.795Z,2.68
2023-11-15T09:15:31.993Z,2.82
2023-11-15T09:16:30.932Z,2.30
2023-11-15T09:17:28.454Z,2.24
2023-11-15T09:18:25.915Z,1.90
2023-11-15T09:19:23.339Z,1.58
2023-11-15T09:20:29.017Z,2.02
2023-11-15T09:21:26.843Z,1.71
2023-11-15T09:22:24.225Z,1.61
2023-11-15T09:23:28.999Z,1.76
2023-11-15T09:24:28.160Z,1.58
2023-11-15T09:25:28.240Z,1.60
2023-11-15T09:26:26.007Z,1.40
2023-11-15T09:27:25.473Z,1.32
2023-11-15T09:28:24.178Z,1.41
2023-11-15T09:29:21.650Z,1.38
2023-11-15T09:30:19.632Z,1.84
2023-11-15T09:31:17.229Z,1.26
2023-11-15T09:32:14.853Z,1.29
2023-11-15T09:33:15.285Z,1.15
2023-11-15T09:34:13.129Z,0.74
2023-11-15T09:35:16.198Z,0.77
2023-11-15T09:36:13.910Z,0.55
2023-11-15T09:37:11.701Z,0.66
2023-11-15T09:38:12.296Z,0.64
2023-11-15T09:39:17.721Z,0.53
2023-11-15T09:40:15.459Z,0.49
2023-11-15T09:41:13.734Z,0.54
2023-11-15T09:42:11.199Z,0.59
2023-11-15T09:43:11.606Z,0.54
2023-11-15T09:44:11.063Z,0.48
2023-11-15T09:45:10.178Z,0.61
2023-11-15T09:46:10.931Z,0.52
2023-11-15T09:47:08.995Z,0.50
2023-11-15T09:48:10.433Z,0.42
2023-11-15T09:49:09.531Z,0.41
2023-11-15T09:50:10.627Z,0.42
2023-11-15T09:51:10.480Z,0.34
2023-11-15T09:52:12.742Z,0.40
2023-11-15T09:53:13.176Z,0.31
2023-11-15T09:54:18.203Z,0.25
2023-11-15T09:55:18.659Z,0.25
2023-11-15T09:57:21.242Z,0.44
2023-11-15T09:58:18.655Z,0.40
2023-11-15T09:59:19.722Z,0.33
2023-11-15T10:00:22.410Z,0.31
2023-11-15T10:01:20.800Z,0.28
2023-11-15T10:02:18.491Z,0.36
2023-11-15T10:03:20.587Z,0.39
2023-11-15T10:04:30.377Z,0.38
2023-11-15T10:05:28.871Z,0.38
2023-11-15T10:06:39.623Z,0.30
2023-11-15T10:07:38.346Z,0.45
2023-11-15T10:08:55.138Z,0.50
2023-11-15T10:09:53.338Z,0.38
2023-11-15T10:11:02.136Z,0.35
2023-11-15T10:12:01.334Z,0.21
2023-11-15T10:12:59.083Z,0.29
2023-11-15T10:14:13.336Z,0.26
2023-11-15T10:15:12.471Z,0.16
2023-11-15T10:16:31.735Z,0.19
2023-11-15T10:17:44.183Z,0.27
2023-11-15T10:18:41.856Z,0.26
2023-11-15T10:19:39.663Z,0.22
2023-11-15T10:20:37.197Z,0.14
2023-11-15T10:21:37.222Z,0.17
2023-11-15T10:22:45.067Z,0.33
2023-11-15T10:23:43.409Z,0.31
2023-11-15T10:24:42.002Z,0.19
2023-11-15T10:25:49.518Z,0.22
2023-11-15T10:26:46.948Z,0.28
2023-11-15T10:27:44.364Z,0.33
2023-11-15T10:28:41.821Z,0.29
2023-11-15T10:29:40.238Z,0.23
2023-11-15T10:30:39.111Z,0.19
2023-11-15T10:31:49.273Z,0.18
2023-11-15T10:32:49.547Z,0.17
2023-11-15T10:33:52.645Z,0.20
2023-11-15T10:34:53.099Z,0.17
2023-11-15T10:35:52.353Z,0.27
2023-11-15T10:37:06.217Z,0.13
2023-11-15T10:38:04.677Z,0.13
2023-11-15T10:39:06.392Z,0.19
2023-11-15T10:40:07.635Z,0.23
2023-11-15T10:41:07.902Z,0.22
2023-11-15T10:42:07.948Z,0.24
2023-11-15T10:43:06.094Z,0.31
2023-11-15T10:44:08.472Z,0.21
2023-11-15T10:45:09.758Z,0.24
2023-11-15T10:46:08.482Z,0.32
2023-11-15T10:47:09.968Z,0.33
2023-11-15T10:48:12.366Z,0.33
2023-11-15T10:49:13.047Z,0.49
2023-11-15T10:50:17.084Z,0.32
2023-11-15T10:51:21.937Z,0.50
2023-11-15T10:52:22.140Z,0.31
2023-11-15T10:53:21.190Z,0.36
2023-11-15T10:54:19.518Z,0.51
2023-11-15T10:55:19.189Z,0.41
2023-11-15T10:56:17.859Z,0.37
2023-11-15T10:57:19.080Z,0.37
2023-11-15T10:58:18.721Z,0.35
2023-11-15T10:59:17.450Z,0.29
2023-11-15T11:00:22.593Z,0.33
2023-11-15T11:01:20.657Z,0.50
2023-11-15T11:02:18.812Z,0.39
2023-11-15T11:03:16.898Z,0.32
2023-11-15T11:04:17.073Z,0.34
2023-11-15T11:05:22.348Z,0.43
2023-11-15T11:06:36.069Z,0.27
2023-11-15T11:07:44.170Z,0.41
2023-11-15T11:08:55.700Z,0.33
2023-11-15T11:09:56.951Z,0.45
2023-11-15T11:10:57.100Z,0.44
2023-11-15T11:12:06.969Z,0.49
2023-11-15T11:13:15.899Z,0.55
2023-11-15T11:14:27.055Z,0.48
2023-11-15T11:15:25.578Z,0.45
2023-11-15T11:16:33.788Z,0.48
2023-11-15T11:17:39.063Z,0.66
2023-11-15T11:18:38.373Z,0.63
2023-11-15T11:19:42.286Z,0.66
2023-11-15T11:20:42.271Z,0.67
2023-11-15T11:22:05.767Z,0.67
2023-11-15T11:23:09.019Z,0.69
2023-11-15T11:24:12.457Z,0.81
2023-11-15T11:25:11.781Z,0.66
2023-11-15T11:26:28.514Z,0.57
2023-11-15T11:27:25.887Z,0.58
2023-11-15T11:28:23.390Z,0.64
2023-11-15T11:29:20.932Z,0.61
2023-11-15T11:30:21.307Z,0.85
2023-11-15T11:31:21.559Z,0.77
2023-11-15T11:32:28.154Z,1.15
2023-11-15T11:33:26.285Z,1.85
2023-11-15T11:34:26.043Z,1.80
2023-11-15T11:35:32.212Z,1.46
2023-11-15T11:37:05.794Z,1.36
2023-11-15T11:38:05.326Z,1.02
2023-11-15T11:39:03.653Z,0.80
2023-11-15T11:40:03.927Z,0.97
2023-11-15T11:41:05.958Z,0.88
2023-11-15T11:42:03.476Z,0.98
2023-11-15T11:43:17.102Z,0.99
2023-11-15T11:44:14.953Z,0.91
2023-11-15T11:45:14.149Z,1.04
2023-11-15T11:46:14.178Z,0.96
2023-11-15T11:47:12.825Z,0.87
2023-11-15T11:48:17.956Z,1.17
2023-11-15T11:49:15.490Z,1.09
2023-11-15T11:50:26.276Z,1.46
2023-11-15T11:51:23.716Z,1.97
2023-11-15T11:52:21.290Z,3.44
2023-11-15T11:53:19.430Z,3.10
2023-11-15T11:54:25.142Z,3.17
2023-11-15T11:55:22.969Z,3.16
2023-11-15T11:56:20.431Z,3.66
2023-11-15T11:57:25.616Z,3.72
2023-11-15T11:58:24.021Z,3.87
2023-11-15T11:59:21.501Z,3.67
2023-11-15T12:00:23.207Z,3.92
2023-11-15T12:01:20.881Z,4.00
2023-11-15T12:02:19.063Z,5.24
2023-11-15T12:03:18.743Z,8.05
2023-11-15T12:04:16.650Z,6.53
2023-11-15T12:05:15.073Z,4.63
2023-11-15T12:06:13.925Z,4.90
2023-11-15T12:07:11.591Z,4.57
2023-11-15T12:08:09.703Z,4.49
2023-11-15T12:09:11.381Z,4.60
2023-11-15T12:10:13.695Z,4.40
2023-11-15T12:11:11.997Z,4.14
2023-11-15T12:12:09.572Z,4.23
2023-11-15T12:13:11.922Z,3.99
2023-11-15T12:14:15.114Z,4.00
2023-11-15T12:15:14.650Z,4.09
2023-11-15T12:16:18.326Z,4.00
2023-11-15T12:17:15.789Z,4.08
2023-11-15T12:18:14.344Z,4.64
2023-11-15T12:19:13.875Z,4.99
2023-11-15T12:20:12.276Z,4.88
2023-11-15T12:21:10.932Z,4.74
2023-11-15T12:22:08.993Z,6.31
2023-11-15T12:23:17.359Z,5.97
2023-11-15T12:24:18.528Z,5.70
2023-11-15T12:25:16.845Z,5.96
2023-11-15T12:26:16.069Z,5.77
2023-11-15T12:27:14.794Z,6.14
2023-11-15T12:28:12.634Z,5.29
2023-11-15T12:29:17.736Z,7.18
2023-11-15T12:30:15.259Z,14.41
2023-11-15T12:31:14.200Z,7.99
2023-11-15T12:32:11.673Z,8.35
2023-11-15T12:33:12.790Z,9.60
2023-11-15T12:34:12.153Z,17.55
2023-11-15T12:35:13.897Z,14.47
2023-11-15T12:36:12.856Z,10.64
2023-11-15T12:37:10.610Z,10.92
2023-11-15T12:38:13.451Z,16.16
2023-11-15T12:39:13.016Z,12.81
2023-11-15T12:40:20.395Z,35.71
2023-11-15T12:41:17.871Z,30.15
2023-11-15T12:42:26.233Z,18.02
2023-11-15T12:43:26.722Z,13.19
2023-11-15T12:44:24.168Z,12.28
2023-11-15T12:45:35.235Z,10.14
2023-11-15T12:46:32.772Z,8.04
2023-11-15T12:47:30.337Z,7.67
2023-11-15T12:48:27.923Z,8.70
2023-11-15T12:49:25.459Z,7.45
2023-11-15T12:50:27.373Z,7.93
2023-11-15T12:51:24.943Z,7.74
2023-11-15T12:52:42.586Z,7.95
2023-11-15T12:53:45.189Z,8.03
2023-11-15T12:54:55.477Z,8.10
2023-11-15T12:55:57.048Z,7.95
2023-11-15T12:57:14.106Z,8.13
2023-11-15T12:58:13.137Z,8.40
2023-11-15T12:59:15.251Z,7.89
2023-11-15T13:00:28.114Z,7.29
2023-11-15T13:01:29.255Z,7.10
2023-11-15T13:02:32.072Z,7.61
2023-11-15T13:03:35.947Z,7.00
2023-11-15T13:04:47.235Z,6.36
2023-11-15T13:05:44.727Z,7.35
2023-11-15T13:06:43.348Z,7.43
2023-11-15T13:07:41.039Z,7.20
2023-11-15T13:08:39.475Z,7.28